Time;durP1;ratioP1;P1;durP2;ratioP2;P2;SDS_P1;SDS_P2;PMS_P1;PMS_P2;Temp;Humidity;BMP_temperature;BMP_pressure;BME280_temperature;BME280_humidity;BME280_pressure;Samples;Min_cycle;Max_cycle;Signal;HPM_P1;HPM_P2
2023/09/21 00:01:23;;;;;;;4.05;2.13;;;;;;;17.86;74.45;99937.28;6132506;23;20027;-69
2023/09/21 00:03:49;;;;;;;3.85;2.20;;;;;;;17.82;74.95;99933.97;6133463;23;20005;-70
2023/09/21 00:06:17;;;;;;;3.67;2.20;;;;;;;17.76;75.04;99919.25;6187237;23;20024;-69
2023/09/21 00:08:44;;;;;;;4.00;2.17;;;;;;;17.72;75.46;99932.78;6157861;23;20351;-70
2023/09/21 00:11:10;;;;;;;3.67;2.28;;;;;;;17.75;75.21;99932.59;6157877;23;20431;-69
2023/09/21 00:13:39;;;;;;;3.90;2.20;;;;;;;17.76;74.76;99929.00;6157745;23;20011;-69
2023/09/21 00:16:09;;;;;;;3.03;1.90;;;;;;;17.78;74.61;99935.06;6158354;23;20009;-69
2023/09/21 00:18:34;;;;;;;3.55;1.98;;;;;;;17.77;74.57;99914.81;6156831;23;20016;-70
2023/09/21 00:21:02;;;;;;;3.40;1.85;;;;;;;17.84;74.06;99916.16;6134077;23;20016;-68
2023/09/21 00:23:30;;;;;;;3.92;2.15;;;;;;;17.88;73.73;99912.41;6157533;23;20344;-68
2023/09/21 00:25:58;;;;;;;2.85;1.88;;;;;;;17.81;73.72;99900.44;6134273;23;20009;-69
2023/09/21 00:28:30;;;;;;;3.80;2.17;;;;;;;17.73;74.69;99910.63;6133549;23;20092;-69
2023/09/21 00:30:58;;;;;;;3.05;2.10;;;;;;;17.72;74.22;99900.97;6134424;23;20032;-70
2023/09/21 00:33:28;;;;;;;3.00;2.03;;;;;;;17.86;73.31;99892.22;6156719;23;20009;-70
2023/09/21 00:35:55;;;;;;;4.43;2.23;;;;;;;17.80;73.68;99894.31;6133702;23;20465;-69
2023/09/21 00:38:20;;;;;;;4.68;2.10;;;;;;;17.77;73.90;99885.66;6133873;23;20001;-69
2023/09/21 00:40:47;;;;;;;3.33;2.10;;;;;;;17.77;73.80;99877.72;6183952;23;20008;-69
2023/09/21 00:43:21;;;;;;;3.80;2.10;;;;;;;17.83;73.71;99882.69;6161423;23;20027;-67
2023/09/21 00:45:51;;;;;;;4.38;2.15;;;;;;;17.76;73.63;99883.97;6192390;23;20019;-70
2023/09/21 00:48:23;;;;;;;4.15;1.75;;;;;;;17.74;73.76;99878.75;6216175;23;20004;-69
2023/09/21 00:50:54;;;;;;;2.38;1.95;;;;;;;17.73;73.86;99881.47;6217539;23;20082;-69
2023/09/21 00:53:22;;;;;;;3.15;2.08;;;;;;;17.70;73.87;99881.66;6217316;23;20392;-69
2023/09/21 00:55:52;;;;;;;4.63;1.95;;;;;;;17.75;73.35;99872.50;6244728;23;20039;-70
2023/09/21 00:58:19;;;;;;;3.92;1.98;;;;;;;17.75;73.20;99858.41;6217188;23;20000;-69
2023/09/21 01:00:46;;;;;;;4.03;2.10;;;;;;;17.69;73.60;99867.56;6192311;23;20023;-69
2023/09/21 01:03:12;;;;;;;3.65;1.98;;;;;;;17.69;73.65;99856.13;6165962;23;20472;-68
2023/09/21 01:05:44;;;;;;;2.15;1.77;;;;;;;17.66;74.01;99859.78;6215558;22;20811;-67
2023/09/21 01:08:17;;;;;;;3.55;1.90;;;;;;;17.58;74.12;99854.91;6216818;23;20077;-68
2023/09/21 01:10:47;;;;;;;4.22;2.00;;;;;;;17.66;73.69;99852.69;6192263;23;20004;-67
2023/09/21 01:13:14;;;;;;;;;;;;;;;17.76;73.66;99860.13;6217171;23;20010;-68
2023/09/21 01:15:45;;;;;;;4.05;2.03;;;;;;;17.60;74.13;99849.56;6191972;23;19911;-68
2023/09/21 01:18:11;;;;;;;;;;;;;;;17.69;73.97;99849.00;6190919;23;20008;-69
2023/09/21 01:20:37;;;;;;;4.43;2.38;;;;;;;17.48;74.42;99835.19;6191935;23;19912;-69
2023/09/21 01:23:18;;;;;;;3.65;1.95;;;;;;;17.37;75.08;99841.09;6192430;23;20483;-69
2023/09/21 01:25:46;;;;;;;3.45;2.10;;;;;;;17.39;75.04;99833.91;6217284;23;20031;-69
2023/09/21 01:28:19;;;;;;;2.70;1.83;;;;;;;17.32;75.19;99832.53;6217001;23;20019;-68
2023/09/21 01:30:45;;;;;;;3.13;1.98;;;;;;;17.28;75.72;99833.66;6217341;23;20004;-68
2023/09/21 01:33:11;;;;;;;3.40;1.90;;;;;;;17.29;75.52;99824.78;6214302;23;20399;-67
2023/09/21 01:35:40;;;;;;;2.13;1.73;;;;;;;17.19;76.13;99816.50;6216286;23;20008;-66
2023/09/21 01:38:06;;;;;;;5.07;2.13;;;;;;;17.25;75.57;99813.50;6216711;23;20024;-69
2023/09/21 01:40:38;;;;;;;3.30;1.85;;;;;;;17.25;75.29;99816.13;6192211;23;20020;-69
2023/09/21 01:43:15;;;;;;;3.63;1.70;;;;;;;17.22;76.04;99808.38;6191657;23;20074;-68
2023/09/21 01:45:42;;;;;;;4.50;2.00;;;;;;;17.33;74.63;99802.50;6215498;22;20004;-68
2023/09/21 01:48:09;;;;;;;3.45;1.80;;;;;;;17.29;74.89;99803.59;6212613;22;20423;-69
2023/09/21 01:50:44;;;;;;;4.75;2.10;;;;;;;17.30;75.31;99806.16;6191746;23;20008;-67
2023/09/21 01:53:11;;;;;;;3.63;1.90;;;;;;;17.38;74.15;99788.97;6214557;23;20335;-68
2023/09/21 01:55:37;;;;;;;3.28;1.90;;;;;;;17.40;73.98;99787.97;6217545;23;20015;-69
2023/09/21 01:58:04;;;;;;;2.83;1.85;;;;;;;17.49;73.27;99798.00;6216075;23;20004;-69
2023/09/21 02:00:34;;;;;;;3.03;1.52;;;;;;;17.55;72.68;99790.66;6216668;23;20008;-69
2023/09/21 02:03:00;;;;;;;2.88;1.70;;;;;;;17.60;72.61;99785.97;6213363;23;20012;-69
2023/09/21 02:05:28;;;;;;;5.38;1.95;;;;;;;17.52;72.98;99789.03;6191650;23;20441;-69
2023/09/21 02:07:55;;;;;;;3.15;1.90;;;;;;;17.58;72.69;99788.69;6190400;23;20016;-69
2023/09/21 02:10:21;;;;;;;4.68;1.85;;;;;;;17.56;72.77;99779.97;6166977;23;20008;-69
2023/09/21 02:12:55;;;;;;;4.53;2.00;;;;;;;17.51;73.09;99782.03;6191907;23;20014;-69
2023/09/21 02:15:21;;;;;;;3.88;1.70;;;;;;;17.48;73.40;99785.72;6216969;23;20003;-69
2023/09/21 02:17:47;;;;;;;3.03;1.90;;;;;;;17.38;74.20;99781.03;6215295;23;20437;-69
2023/09/21 02:20:14;;;;;;;2.70;1.88;;;;;;;17.38;73.60;99776.59;6190938;23;20028;-69
2023/09/21 02:22:45;;;;;;;4.05;1.98;;;;;;;17.38;74.19;99781.03;6192023;23;20011;-70
2023/09/21 02:25:10;;;;;;;3.20;1.92;;;;;;;17.27;74.46;99779.03;6216742;23;20011;-70
2023/09/21 02:27:52;;;;;;;5.25;2.00;;;;;;;17.25;74.67;99781.72;6191345;23;20008;-69
2023/09/21 02:30:23;;;;;;;2.88;1.83;;;;;;;17.31;74.01;99775.22;6194243;23;20066;-69
2023/09/21 02:32:57;;;;;;;7.15;1.98;;;;;;;17.28;74.21;99765.69;6217312;23;20534;-69
2023/09/21 02:35:27;;;;;;;3.17;1.85;;;;;;;17.24;74.44;99766.78;6219020;23;20039;-69
2023/09/21 02:37:56;;;;;;;3.53;1.98;;;;;;;17.20;74.70;99767.91;6218250;23;20294;-69
2023/09/21 02:40:23;;;;;;;3.08;1.60;;;;;;;17.06;75.73;99758.09;6218684;23;20095;-69
2023/09/21 02:42:53;;;;;;;2.88;1.80;;;;;;;17.08;75.71;99758.88;6193884;23;20012;-69
2023/09/21 02:45:23;;;;;;;4.82;2.03;;;;;;;17.03;75.79;99765.38;6194014;23;20103;-69
2023/09/21 02:47:51;;;;;;;4.10;1.85;;;;;;;17.02;75.93;99759.19;6217361;23;20063;-69
2023/09/21 02:50:27;;;;;;;3.03;1.90;;;;;;;16.92;76.68;99760.66;6193173;23;20039;-69
2023/09/21 02:53:12;;;;;;;3.42;1.88;;;;;;;16.92;76.53;99758.88;6218410;23;20078;-69
2023/09/21 02:55:39;;;;;;;4.63;1.90;;;;;;;16.82;77.36;99752.31;6194367;23;20034;-69
2023/09/21 02:58:10;;;;;;;3.58;2.13;;;;;;;16.77;77.14;99749.94;6244796;22;19999;-69
2023/09/21 03:00:43;;;;;;;4.07;1.80;;;;;;;16.76;77.11;99750.03;6194303;23;20030;-69
2023/09/21 03:03:16;;;;;;;3.88;2.20;;;;;;;16.77;77.64;99749.09;6217649;23;20058;-68
2023/09/21 03:05:47;;;;;;;3.30;2.20;;;;;;;16.77;77.76;99746.44;6219124;23;20401;-70
2023/09/21 03:08:15;;;;;;;3.75;1.90;;;;;;;16.73;77.80;99735.19;6217314;23;20430;-69
2023/09/21 03:10:45;;;;;;;3.55;2.17;;;;;;;16.66;78.15;99735.59;6194181;23;20315;-69
2023/09/21 03:13:17;;;;;;;3.05;2.05;;;;;;;16.66;78.07;99735.59;6216617;23;20087;-69
2023/09/21 03:15:44;;;;;;;3.88;1.92;;;;;;;16.68;78.29;99733.72;6218502;23;20004;-69
2023/09/21 03:18:09;;;;;;;4.32;2.30;;;;;;;16.66;78.50;99730.31;6167242;23;20027;-69
2023/09/21 03:20:36;;;;;;;4.55;2.10;;;;;;;16.59;78.82;99730.66;6192659;23;20429;-69
2023/09/21 03:23:05;;;;;;;4.43;2.10;;;;;;;16.57;79.00;99731.69;6192213;23;20014;-69
2023/09/21 03:25:33;;;;;;;4.75;1.90;;;;;;;16.61;78.58;99730.56;6192244;23;20078;-69
2023/09/21 03:28:15;;;;;;;3.65;2.13;;;;;;;16.61;78.89;99734.06;6192302;23;20004;-70
2023/09/21 03:30:44;;;;;;;3.05;1.70;;;;;;;16.67;78.61;99737.31;6217292;23;20050;-69
2023/09/21 03:33:10;;;;;;;3.60;2.03;;;;;;;16.73;77.99;99731.69;6190931;23;20385;-70
2023/09/21 03:35:39;;;;;;;2.70;1.90;;;;;;;16.70;78.44;99738.00;6217872;23;20012;-69
2023/09/21 03:38:18;;;;;;;3.50;2.05;;;;;;;16.73;78.02;99726.41;6217604;23;20004;-69
2023/09/21 03:40:44;;;;;;;3.97;1.98;;;;;;;16.73;78.63;99726.41;6193991;23;20016;-69
2023/09/21 03:43:12;;;;;;;5.25;2.20;;;;;;;16.73;78.55;99732.53;6192205;23;20513;-69
2023/09/21 03:45:39;;;;;;;3.60;2.00;;;;;;;16.80;78.02;99725.97;6192510;23;20150;-70
2023/09/21 03:48:08;;;;;;;2.90;1.63;;;;;;;16.94;77.11;99722.59;6166208;23;20035;-69
2023/09/21 03:50:34;;;;;;;3.60;2.00;;;;;;;16.92;77.60;99732.41;6192944;23;20008;-69
2023/09/21 03:53:04;;;;;;;4.38;2.00;;;;;;;16.92;77.83;99720.97;6216741;23;20016;-70
2023/09/21 03:55:31;;;;;;;3.58;1.90;;;;;;;16.93;77.85;99720.03;6193274;23;20016;-69
2023/09/21 03:57:56;;;;;;;2.92;1.80;;;;;;;17.01;77.34;99719.59;6192530;23;20523;-69
2023/09/21 04:03:10;;;;;;;3.30;1.90;;;;;;;17.08;77.33;99707.72;6218697;23;20016;-69
2023/09/21 04:05:40;;;;;;;3.40;1.80;;;;;;;17.17;76.58;99712.50;6193765;23;20091;-69
2023/09/21 04:08:05;;;;;;;3.03;1.77;;;;;;;17.13;76.89;99708.31;6192793;23;20154;-70
2023/09/21 04:10:31;;;;;;;3.00;2.00;;;;;;;17.11;77.16;99708.41;6217765;23;20446;-69
2023/09/21 04:12:57;;;;;;;2.85;2.03;;;;;;;17.09;77.60;99701.50;6217986;23;20039;-69
2023/09/21 04:15:27;;;;;;;4.57;2.00;;;;;;;17.17;76.98;99704.56;6217816;23;20000;-68
2023/09/21 04:17:53;;;;;;;4.32;1.98;;;;;;;17.17;77.29;99704.56;6191938;23;20003;-69
2023/09/21 04:20:21;;;;;;;3.95;2.03;;;;;;;17.20;77.20;99712.31;6217665;23;20434;-69
2023/09/21 04:22:49;;;;;;;3.47;1.98;;;;;;;17.18;77.80;99706.25;6217744;23;20008;-69
2023/09/21 04:25:16;;;;;;;5.05;2.38;;;;;;;17.24;77.34;99703.25;6192091;23;20019;-69
2023/09/21 04:27:44;;;;;;;3.00;2.00;;;;;;;17.34;76.86;99710.66;6192197;23;20008;-69
2023/09/21 04:30:21;;;;;;;3.55;1.67;;;;;;;17.30;77.37;99717.94;6191977;23;20099;-69
2023/09/21 04:32:47;;;;;;;4.35;2.20;;;;;;;17.28;77.45;99706.56;6191805;23;20123;-69
2023/09/21 04:35:14;;;;;;;3.67;1.80;;;;;;;17.27;77.32;99716.31;6167514;23;20433;-69
2023/09/21 04:37:42;;;;;;;3.17;1.55;;;;;;;17.28;77.66;99712.75;6166979;23;20062;-69
2023/09/21 04:40:09;;;;;;;3.30;2.22;;;;;;;17.25;78.05;99718.19;6192020;23;20008;-69
2023/09/21 04:42:40;;;;;;;3.95;1.83;;;;;;;17.28;77.98;99707.44;6216331;23;20008;-69
2023/09/21 04:45:09;;;;;;;;;;;;;;;17.47;77.67;99704.56;6217787;23;20035;-69
2023/09/21 04:47:39;;;;;;;4.33;2.20;;;;;;;17.20;79.07;99691.13;6215525;23;19957;-69
2023/09/21 04:50:05;;;;;;;6.25;2.15;;;;;;;17.19;78.99;99699.16;6216985;23;20031;-69
2023/09/21 04:52:34;;;;;;;10.18;2.00;;;;;;;17.16;79.23;99694.06;6215742;23;20123;-69
2023/09/21 04:55:01;;;;;;;3.75;1.95;;;;;;;17.17;79.34;99691.31;6192069;23;20008;-69
2023/09/21 04:57:27;;;;;;;4.10;2.20;;;;;;;17.14;79.25;99680.91;6242188;22;20000;-70
2023/09/21 04:59:54;;;;;;;5.80;2.50;;;;;;;17.13;79.72;99687.97;6192362;23;20019;-69
2023/09/21 05:02:20;;;;;;;8.10;2.45;;;;;;;17.12;79.75;99688.06;6166478;23;20015;-69
2023/09/21 05:04:45;;;;;;;3.88;2.35;;;;;;;17.14;79.14;99688.84;6166697;23;20012;-69
2023/09/21 05:07:13;;;;;;;4.10;2.17;;;;;;;17.15;79.65;99687.88;6191067;22;20028;-70
2023/09/21 05:09:39;;;;;;;4.20;2.10;;;;;;;17.09;80.03;99691.75;6192224;23;20008;-69
2023/09/21 05:12:06;;;;;;;4.60;2.60;;;;;;;17.18;79.31;99690.34;6166670;23;20464;-69
2023/09/21 05:14:32;;;;;;;4.75;2.17;;;;;;;17.08;80.63;99694.47;6188705;23;20023;-69
2023/09/21 05:17:00;;;;;;;5.38;2.67;;;;;;;17.12;80.31;99701.31;6191107;22;20102;-69
2023/09/21 05:19:26;;;;;;;2.25;1.98;;;;;;;17.07;81.04;99684.84;6162849;23;20035;-69
2023/09/21 05:21:56;;;;;;;2.65;2.03;;;;;;;17.13;80.46;99687.13;6191666;23;20422;-69
2023/09/21 05:24:22;;;;;;;2.35;1.83;;;;;;;17.18;80.09;99685.06;6215214;23;20004;-69
2023/09/21 05:26:48;;;;;;;3.55;2.17;;;;;;;17.16;80.47;99681.66;6166953;23;20307;-69
2023/09/21 05:29:14;;;;;;;4.88;2.00;;;;;;;17.20;80.00;99691.13;6190174;23;20008;-69
2023/09/21 05:31:39;;;;;;;6.13;2.00;;;;;;;17.18;80.36;99684.22;6189166;23;20008;-69
2023/09/21 05:34:05;;;;;;;4.60;2.03;;;;;;;17.22;80.24;99686.59;6213760;23;20012;-69
2023/09/21 05:36:30;;;;;;;3.67;1.98;;;;;;;17.19;80.50;99681.47;6191037;23;20089;-69
2023/09/21 05:38:56;;;;;;;4.07;2.33;;;;;;;17.14;81.26;99679.09;6190119;23;20295;-69
2023/09/21 05:41:22;;;;;;;4.50;2.20;;;;;;;17.16;81.07;99686.97;6164603;23;20491;-69
2023/09/21 05:43:48;;;;;;;3.35;2.00;;;;;;;17.16;81.20;99671.06;6191624;23;20005;-69
2023/09/21 05:46:14;;;;;;;4.57;2.55;;;;;;;17.20;81.05;99680.56;6166455;23;20310;-69
2023/09/21 05:48:40;;;;;;;5.10;2.22;;;;;;;17.21;81.23;99669.03;6189965;23;20016;-68
2023/09/21 05:51:06;;;;;;;5.40;2.38;;;;;;;17.20;81.66;99667.31;6167282;23;20011;-69
2023/09/21 05:53:31;;;;;;;4.10;2.40;;;;;;;17.28;80.88;99670.38;6144235;23;20025;-68
2023/09/21 05:55:57;;;;;;;4.65;2.22;;;;;;;17.31;81.20;99670.19;6186496;23;20446;-69
2023/09/21 05:58:23;;;;;;;4.05;2.30;;;;;;;17.34;81.03;99663.88;6160439;23;20045;-68
2023/09/21 06:00:52;;;;;;;5.07;2.30;;;;;;;17.34;81.57;99673.59;6161358;23;20009;-68
2023/09/21 06:03:17;;;;;;;3.97;2.17;;;;;;;17.35;80.66;99677.94;6160308;23;20012;-69
2023/09/21 06:05:45;;;;;;;4.80;2.22;;;;;;;17.28;81.69;99666.84;6161753;23;20016;-68
2023/09/21 06:08:10;;;;;;;4.47;2.40;;;;;;;17.23;82.24;99669.78;6160293;23;20020;-69
2023/09/21 06:10:36;;;;;;;4.50;2.50;;;;;;;17.23;82.56;99671.59;6185761;23;20009;-68
2023/09/21 06:13:05;;;;;;;5.65;2.85;;;;;;;17.16;83.97;99667.59;6160741;23;20059;-68
2023/09/21 06:15:37;;;;;;;4.35;2.67;;;;;;;17.20;83.45;99675.25;6185426;23;20009;-68
2023/09/21 06:18:04;;;;;;;7.43;3.00;;;;;;;17.19;84.37;99670.06;6161261;23;20016;-68
2023/09/21 06:20:30;;;;;;;4.13;2.42;;;;;;;17.23;84.67;99682.16;6161722;23;20403;-68
2023/09/21 06:22:55;;;;;;;4.75;2.55;;;;;;;17.22;85.17;99683.94;6185842;23;20001;-69
2023/09/21 06:25:21;;;;;;;4.75;2.78;;;;;;;17.18;85.36;99673.63;6161575;23;20012;-69
2023/09/21 06:27:47;;;;;;;3.92;2.40;;;;;;;17.26;84.87;99688.13;6186846;23;20023;-69
2023/09/21 06:30:15;;;;;;;4.53;2.35;;;;;;;17.23;85.22;99688.31;6162333;23;20442;-69
2023/09/21 06:32:40;;;;;;;4.60;2.78;;;;;;;17.13;87.25;99677.41;6160360;23;20016;-68
2023/09/21 06:35:08;;;;;;;3.85;2.17;;;;;;;17.15;86.66;99679.94;6187026;23;20485;-69
2023/09/21 06:37:34;;;;;;;5.57;2.67;;;;;;;17.08;88.36;99683.88;6161880;23;20399;-69
2023/09/21 06:40:00;;;;;;;5.15;2.42;;;;;;;17.13;88.28;99687.13;6186161;23;20422;-69
2023/09/21 06:42:26;;;;;;;4.18;2.55;;;;;;;17.21;87.31;99689.34;6186486;23;20070;-69
2023/09/21 06:44:54;;;;;;;4.28;2.47;;;;;;;17.12;89.31;99686.31;6162325;23;20024;-69
2023/09/21 06:47:22;;;;;;;3.53;2.00;;;;;;;17.16;89.00;99689.59;6160544;23;20009;-69
2023/09/21 06:49:49;;;;;;;4.18;2.45;;;;;;;17.17;89.00;99683.38;6184466;23;20043;-69
2023/09/21 06:52:17;;;;;;;4.10;2.20;;;;;;;17.24;87.95;99683.84;6167348;23;20027;-70
2023/09/21 06:54:42;;;;;;;5.18;2.47;;;;;;;17.27;88.77;99684.53;6192056;23;20409;-69
2023/09/21 06:57:08;;;;;;;4.78;2.30;;;;;;;17.22;89.50;99691.88;6191282;22;20012;-69
2023/09/21 06:59:34;;;;;;;6.55;2.40;;;;;;;17.20;89.67;99683.19;6191282;23;20008;-69
2023/09/21 07:02:01;;;;;;;4.57;2.38;;;;;;;17.10;91.45;99689.97;6190871;23;20449;-69
2023/09/21 07:04:28;;;;;;;3.33;2.08;;;;;;;17.14;90.72;99695.00;6190064;23;20012;-69
2023/09/21 07:06:54;;;;;;;3.30;2.10;;;;;;;17.20;90.69;99693.78;6166480;22;20038;-69
2023/09/21 07:09:20;;;;;;;3.13;2.20;;;;;;;17.24;89.88;99697.97;6186681;23;20494;-70
2023/09/21 07:11:46;;;;;;;2.85;2.20;;;;;;;17.19;90.38;99701.81;6165256;23;20038;-69
2023/09/21 07:14:13;;;;;;;4.22;2.00;;;;;;;17.16;91.29;99702.00;6215914;23;20018;-69
2023/09/21 07:16:39;;;;;;;3.85;2.45;;;;;;;17.12;92.00;99701.31;6192363;23;20051;-69
2023/09/21 07:19:04;;;;;;;3.85;2.35;;;;;;;17.13;92.05;99703.03;6166251;23;20410;-69
2023/09/21 07:21:30;;;;;;;6.55;2.67;;;;;;;17.10;92.19;99687.31;6167932;23;20012;-69
2023/09/21 07:23:56;;;;;;;3.10;2.10;;;;;;;17.09;93.39;99688.25;6218173;23;20008;-70
2023/09/21 07:26:22;;;;;;;4.97;2.42;;;;;;;17.06;94.07;99694.56;6192669;23;20022;-70
2023/09/21 07:28:47;;;;;;;4.68;2.30;;;;;;;17.07;93.15;99691.00;6218160;23;20008;-69
2023/09/21 07:31:13;;;;;;;6.50;2.78;;;;;;;17.06;93.72;99691.06;6192723;23;20004;-69
2023/09/21 07:33:39;;;;;;;4.60;2.45;;;;;;;17.03;94.35;99688.63;6191664;23;20012;-69
2023/09/21 07:36:06;;;;;;;4.07;2.15;;;;;;;17.03;94.96;99688.63;6217971;23;20334;-69
2023/09/21 07:38:31;;;;;;;4.38;2.25;;;;;;;16.90;96.09;99686.66;6192620;23;20012;-69
2023/09/21 07:40:57;;;;;;;3.35;2.40;;;;;;;16.90;96.43;99694.59;6168077;23;20012;-68
2023/09/21 07:43:22;;;;;;;3.17;2.85;;;;;;;16.79;98.86;99694.31;6192445;23;20353;-69
2023/09/21 07:45:49;;;;;;;5.22;2.50;;;;;;;16.79;98.76;99691.66;6216829;23;20008;-69
2023/09/21 07:48:16;;;;;;;3.78;2.58;;;;;;;16.69;100.00;99688.66;6165911;23;20031;-68
2023/09/21 07:50:42;;;;;;;3.70;2.67;;;;;;;16.67;100.00;99687.06;6216691;23;20066;-68
2023/09/21 07:53:08;;;;;;;4.63;3.05;;;;;;;16.64;100.00;99690.72;6217441;23;20024;-69
2023/09/21 07:55:34;;;;;;;4.68;3.08;;;;;;;16.67;100.00;99684.41;6167915;23;20066;-69
2023/09/21 07:57:59;;;;;;;4.32;2.97;;;;;;;16.60;100.00;99689.19;6192759;23;20039;-69
2023/09/21 08:00:26;;;;;;;3.75;2.70;;;;;;;16.64;100.00;99696.03;6167367;23;20123;-70
2023/09/21 08:02:53;;;;;;;6.10;2.88;;;;;;;16.61;100.00;99688.25;6165698;23;20012;-69
2023/09/21 08:05:18;;;;;;;6.22;3.55;;;;;;;16.60;100.00;99697.97;6168619;23;20046;-69
2023/09/21 08:07:45;;;;;;;4.43;3.00;;;;;;;16.60;100.00;99699.75;6191638;23;20481;-69
2023/09/21 08:10:11;;;;;;;3.75;2.90;;;;;;;16.57;100.00;99698.13;6217961;23;20080;-69
2023/09/21 08:12:38;;;;;;;7.78;3.85;;;;;;;16.57;100.00;99694.66;6191064;23;20387;-68
2023/09/21 08:15:06;;;;;;;9.48;3.83;;;;;;;16.57;100.00;99702.59;6193440;23;20578;-70
2023/09/21 08:17:32;;;;;;;5.47;3.40;;;;;;;16.56;100.00;99699.06;6190851;23;20042;-69
2023/09/21 08:19:58;;;;;;;4.60;3.40;;;;;;;16.62;100.00;99700.53;6192821;23;20047;-69
2023/09/21 08:22:26;;;;;;;6.63;3.55;;;;;;;16.54;100.00;99705.41;6216706;23;20334;-69
2023/09/21 08:24:52;;;;;;;4.78;2.97;;;;;;;16.58;100.00;99717.53;6168638;23;20083;-70
2023/09/21 08:27:18;;;;;;;4.88;2.90;;;;;;;16.60;100.00;99716.47;6167586;23;20098;-70
2023/09/21 08:29:44;;;;;;;3.03;2.63;;;;;;;16.56;100.00;99720.22;6166103;23;20585;-68
2023/09/21 08:32:10;;;;;;;5.35;3.22;;;;;;;16.53;100.00;99720.41;6191902;23;20091;-68
2023/09/21 08:34:36;;;;;;;3.17;2.40;;;;;;;16.62;100.00;99730.50;6216902;23;20853;-69
2023/09/21 08:37:02;;;;;;;4.90;2.40;;;;;;;16.59;100.00;99735.94;6217541;22;20023;-69
2023/09/21 08:39:28;;;;;;;4.95;2.60;;;;;;;16.53;100.00;99736.25;6191891;23;20073;-69
2023/09/21 08:41:54;;;;;;;7.22;3.00;;;;;;;16.50;100.00;99751.47;6167628;23;20494;-68
2023/09/21 08:44:20;;;;;;;4.35;2.97;;;;;;;16.51;100.00;99732.84;6192738;23;20319;-68
2023/09/21 08:46:46;;;;;;;5.72;3.22;;;;;;;16.49;100.00;99740.00;6216844;23;20076;-69
2023/09/21 08:49:15;;;;;;;5.60;3.13;;;;;;;16.45;100.00;99749.91;6191046;23;20387;-68
2023/09/21 08:51:42;;;;;;;6.13;3.30;;;;;;;16.47;100.00;99755.13;6216932;23;19999;-69
2023/09/21 08:54:16;;;;;;;4.47;3.03;;;;;;;16.45;100.00;99764.94;6216912;23;20379;-69
2023/09/21 08:56:43;;;;;;;3.95;2.90;;;;;;;16.50;100.00;99770.81;6217037;23;20007;-69
2023/09/21 08:59:09;;;;;;;5.03;3.45;;;;;;;16.51;100.00;99767.25;6192183;23;20011;-68
2023/09/21 09:01:35;;;;;;;4.03;3.20;;;;;;;16.59;100.00;99778.28;6190062;23;20027;-69
2023/09/21 09:04:00;;;;;;;5.10;3.30;;;;;;;16.63;100.00;99774.50;6165152;23;20008;-68
2023/09/21 09:06:29;;;;;;;7.70;3.85;;;;;;;16.71;100.00;99773.25;6192684;23;20423;-68
2023/09/21 09:08:55;;;;;;;4.15;3.75;;;;;;;16.78;100.00;99769.34;6193759;23;20016;-68
2023/09/21 09:11:40;;;;;;;7.40;4.40;;;;;;;16.85;100.00;99772.47;6217011;23;20031;-69
2023/09/21 09:14:21;;;;;;;6.05;4.50;;;;;;;16.91;100.00;99762.47;6216378;23;20008;-68
2023/09/21 09:16:47;;;;;;;5.63;4.65;;;;;;;16.89;100.00;99764.31;6216159;23;20008;-69
2023/09/21 09:19:13;;;;;;;5.60;4.65;;;;;;;16.85;100.00;99762.78;6191139;23;20091;-69
2023/09/21 09:21:41;;;;;;;5.22;4.72;;;;;;;16.85;100.00;99781.28;6191661;23;20015;-68
2023/09/21 09:24:08;;;;;;;5.47;4.50;;;;;;;16.80;100.00;99775.38;6167768;23;20019;-69
2023/09/21 09:26:35;;;;;;;5.53;4.55;;;;;;;16.79;100.00;99774.53;6216701;23;20069;-69
2023/09/21 09:29:12;;;;;;;6.38;4.20;;;;;;;16.74;100.00;99770.44;6217089;23;20008;-69
2023/09/21 09:31:41;;;;;;;5.72;4.38;;;;;;;16.73;100.00;99760.78;6215671;23;20011;-69
2023/09/21 09:34:09;;;;;;;6.13;4.00;;;;;;;16.80;100.00;99759.50;6191602;23;20015;-69
2023/09/21 09:36:35;;;;;;;4.00;3.60;;;;;;;16.80;100.00;99746.28;6216497;23;20004;-69
2023/09/21 09:39:01;;;;;;;5.20;4.10;;;;;;;16.86;100.00;99742.44;6216176;23;20384;-69
2023/09/21 09:41:31;;;;;;;4.90;4.38;;;;;;;17.00;100.00;99747.84;6192074;23;20481;-69
2023/09/21 09:43:59;;;;;;;4.75;4.25;;;;;;;17.06;100.00;99751.94;6190194;23;20042;-69
2023/09/21 09:46:26;;;;;;;5.13;3.90;;;;;;;17.10;100.00;99750.84;6216740;23;20008;-69
2023/09/21 09:48:58;;;;;;;4.40;3.88;;;;;;;17.19;100.00;99754.75;6215755;23;20008;-69
2023/09/21 09:51:28;;;;;;;4.10;3.70;;;;;;;17.16;100.00;99747.84;6216825;23;20000;-69
2023/09/21 09:53:56;;;;;;;4.53;3.65;;;;;;;17.29;100.00;99759.44;6215389;23;20047;-69
2023/09/21 09:56:23;;;;;;;4.72;3.53;;;;;;;17.31;100.00;99760.22;6217179;23;20377;-69
2023/09/21 09:58:51;;;;;;;4.75;3.35;;;;;;;17.33;100.00;99757.47;6216149;23;20325;-69
2023/09/21 10:01:17;;;;;;;3.88;3.30;;;;;;;17.34;100.00;99756.53;6191000;23;20012;-69
2023/09/21 10:03:43;;;;;;;5.18;4.00;;;;;;;17.31;100.00;99749.63;6166065;23;20008;-69
2023/09/21 10:06:09;;;;;;;3.92;3.60;;;;;;;17.17;100.00;99751.31;6191484;23;20333;-69
2023/09/21 10:08:39;;;;;;;5.72;3.92;;;;;;;17.36;100.00;99744.06;6216400;23;20016;-69
2023/09/21 10:11:06;;;;;;;5.35;4.00;;;;;;;17.45;100.00;99751.47;6191818;23;20014;-69
2023/09/21 10:13:35;;;;;;;4.35;3.92;;;;;;;17.57;100.00;99749.91;6216288;23;20047;-69
2023/09/21 10:16:05;;;;;;;5.20;4.50;;;;;;;17.61;100.00;99743.50;6214932;23;20008;-69
2023/09/21 10:18:40;;;;;;;4.95;4.47;;;;;;;17.58;100.00;99735.72;6214743;23;20104;-69
2023/09/21 10:21:30;;;;;;;6.40;4.78;;;;;;;17.60;100.00;99744.44;6216768;23;20007;-69
2023/09/21 10:24:16;;;;;;;5.65;4.82;;;;;;;17.49;100.00;99736.25;6192144;23;20439;-68
2023/09/21 10:26:51;;;;;;;5.55;5.05;;;;;;;17.36;100.00;99732.63;6215852;23;20004;-69
2023/09/21 10:29:26;;;;;;;5.90;5.30;;;;;;;17.37;100.00;99740.47;6192173;23;20030;-68
2023/09/21 10:31:54;;;;;;;6.28;5.35;;;;;;;17.41;100.00;99739.38;6215588;23;20008;-68
2023/09/21 10:34:21;;;;;;;6.43;5.50;;;;;;;17.35;100.00;99726.44;6190865;23;20004;-68
2023/09/21 10:36:52;;;;;;;6.70;6.03;;;;;;;17.28;100.00;99725.09;6215885;23;20007;-69
2023/09/21 10:39:25;;;;;;;7.05;6.40;;;;;;;17.34;100.00;99721.25;6216472;23;20462;-69
2023/09/21 10:41:53;;;;;;;6.35;5.75;;;;;;;17.39;100.00;99724.50;6192252;23;20376;-69
2023/09/21 10:44:53;;;;;;;7.28;6.13;;;;;;;17.46;100.00;99716.09;6215868;23;20040;-69
2023/09/21 10:47:47;;;;;;;6.70;6.07;;;;;;;17.41;100.00;99712.88;6165977;23;20008;-69
2023/09/21 10:50:23;;;;;;;6.85;6.15;;;;;;;17.45;100.00;99713.53;6208646;23;20012;-69
2023/09/21 10:52:51;;;;;;;5.88;4.25;;;;;;;17.60;100.00;99704.69;6217981;23;20027;-69
2023/09/21 10:55:18;;;;;;;5.80;3.63;;;;;;;17.67;100.00;99702.56;6193276;23;20087;-69
2023/09/21 10:57:46;;;;;;;5.63;3.33;;;;;;;17.72;100.00;99704.91;6217819;23;20004;-69
2023/09/21 11:00:16;;;;;;;3.90;2.50;;;;;;;17.79;100.00;99700.97;6193956;23;20008;-69
2023/09/21 11:02:44;;;;;;;3.85;2.47;;;;;;;17.82;100.00;99691.00;6216983;23;20012;-69
2023/09/21 11:05:13;;;;;;;4.18;2.30;;;;;;;17.86;100.00;99686.41;6218467;23;20004;-69
2023/09/21 11:07:43;;;;;;;3.45;2.38;;;;;;;17.92;100.00;99686.03;6217017;23;20397;-69
2023/09/21 11:10:11;;;;;;;2.58;1.85;;;;;;;17.98;100.00;99680.34;6218816;23;20331;-69
2023/09/21 11:12:38;;;;;;;1.95;1.67;;;;;;;18.03;100.00;99677.44;6217302;23;20008;-69
2023/09/21 11:15:06;;;;;;;3.13;2.00;;;;;;;18.06;100.00;99660.47;6168873;23;20378;-69
2023/09/21 11:17:32;;;;;;;3.03;1.95;;;;;;;18.11;100.00;99666.38;6191919;23;20008;-69
2023/09/21 11:19:58;;;;;;;2.42;1.92;;;;;;;18.13;99.16;99659.16;6216810;23;20058;-69
2023/09/21 11:22:24;;;;;;;3.47;2.08;;;;;;;18.16;98.56;99657.19;6193430;23;20426;-69
2023/09/21 11:24:49;;;;;;;2.10;1.85;;;;;;;18.13;100.00;99651.19;6217942;23;20310;-69
2023/09/21 11:27:15;;;;;;;4.22;2.10;;;;;;;18.20;97.86;99660.47;6193154;23;20036;-69
2023/09/21 11:29:42;;;;;;;3.35;2.10;;;;;;;18.23;97.63;99660.31;6167716;23;20442;-70
2023/09/21 11:32:17;;;;;;;3.30;2.15;;;;;;;18.25;97.58;99661.06;6168386;23;20327;-70
2023/09/21 11:34:44;;;;;;;3.58;2.08;;;;;;;18.30;97.24;99658.09;6217676;23;20007;-71
2023/09/21 11:37:11;;;;;;;2.50;1.75;;;;;;;18.34;96.34;99665.75;6245447;22;20035;-69
2023/09/21 11:39:37;;;;;;;3.45;1.95;;;;;;;18.38;96.21;99658.47;6217862;23;20445;-69